createdAt,value
2018-07-26T00:00:30.497Z,100830.98
2018-07-26T00:03:00.195Z,100827.46
2018-07-26T00:05:29.926Z,100829.17
2018-07-26T00:07:59.656Z,100827.06
2018-07-26T00:10:29.456Z,100823.55
2018-07-26T00:12:59.184Z,100823.09
2018-07-26T00:15:28.856Z,100815.11
2018-07-26T00:17:58.734Z,100818.91
2018-07-26T00:20:28.606Z,100822.33
2018-07-26T00:22:58.262Z,100822.91
2018-07-26T00:25:28.022Z,100824.95
2018-07-26T00:27:57.712Z,100819.35
2018-07-26T00:30:27.416Z,100821.84
2018-07-26T00:32:57.150Z,100819.31
2018-07-26T00:35:26.581Z,100823.44
2018-07-26T00:37:56.320Z,100828.99
2018-07-26T00:40:26.220Z,100834.91
2018-07-26T00:42:55.915Z,100826.15
2018-07-26T00:45:25.593Z,100824.78
2018-07-26T00:47:55.441Z,100818.61
2018-07-26T00:50:25.162Z,100816.48
2018-07-26T00:52:54.926Z,100820.81
2018-07-26T00:55:24.867Z,100816.20
2018-07-26T00:57:54.619Z,100818.61
2018-07-26T01:00:24.640Z,100822.80
2018-07-26T01:02:54.352Z,100821.69
2018-07-26T01:05:24.354Z,100820.33
2018-07-26T01:07:54.090Z,100825.89
2018-07-26T01:10:23.933Z,100813.76
2018-07-26T01:12:53.785Z,100814.02
2018-07-26T01:15:23.456Z,100814.31
2018-07-26T01:17:53.284Z,100816.89
2018-07-26T01:20:23.048Z,100823.46
2018-07-26T01:22:52.874Z,100828.53
2018-07-26T01:25:22.600Z,100822.14
2018-07-26T01:27:52.334Z,100823.65
2018-07-26T01:30:22.100Z,100819.41
2018-07-26T01:32:51.870Z,100817.72
2018-07-26T01:35:21.652Z,100821.38
2018-07-26T01:37:51.415Z,100823.28
2018-07-26T01:40:21.081Z,100824.27
2018-07-26T01:43:01.623Z,100828.31
2018-07-26T01:45:31.272Z,100821.30
2018-07-26T01:48:00.922Z,100823.64
2018-07-26T01:50:30.652Z,100824.95
2018-07-26T01:53:00.340Z,100826.59
2018-07-26T01:55:30.097Z,100828.41
2018-07-26T01:57:59.896Z,100827.57
2018-07-26T02:00:30.633Z,100821.45
2018-07-26T02:03:00.337Z,100833.11
2018-07-26T02:05:30.089Z,100826.61
2018-07-26T02:07:59.756Z,100826.66
2018-07-26T02:10:29.528Z,100826.81
2018-07-26T02:12:59.268Z,100820.39
2018-07-26T02:15:29.017Z,100824.09
2018-07-26T02:17:58.738Z,100823.66
2018-07-26T02:20:28.413Z,100825.41
2018-07-26T02:22:58.192Z,100825.55
2018-07-26T02:25:27.849Z,100826.03
2018-07-26T02:27:57.629Z,100825.29
2018-07-26T02:30:27.342Z,100827.19
2018-07-26T02:32:57.035Z,100822.00
2018-07-26T02:35:27.021Z,100819.08
2018-07-26T02:37:56.737Z,100819.98
2018-07-26T02:40:26.366Z,100818.23
2018-07-26T02:42:56.022Z,100820.02
2018-07-26T02:45:25.714Z,100824.84
2018-07-26T02:47:55.413Z,100823.66
2018-07-26T02:50:25.291Z,100819.43
2018-07-26T02:52:55.053Z,100822.52
2018-07-26T02:55:24.707Z,100817.89
2018-07-26T02:57:54.641Z,100826.38
2018-07-26T03:00:24.321Z,100825.99
2018-07-26T03:02:54.107Z,100821.69
2018-07-26T03:05:23.822Z,100820.37
2018-07-26T03:07:53.570Z,100825.71
2018-07-26T03:10:23.307Z,100827.18
2018-07-26T03:12:52.990Z,100831.17
2018-07-26T03:15:22.789Z,100825.09
2018-07-26T03:17:52.439Z,100825.44
2018-07-26T03:20:22.205Z,100832.16
2018-07-26T03:22:51.869Z,100836.00
2018-07-26T03:25:21.805Z,100831.88
2018-07-26T03:27:51.495Z,100829.89
2018-07-26T03:30:21.150Z,100834.81
2018-07-26T03:32:50.928Z,100830.07
2018-07-26T03:35:20.626Z,100832.41
2018-07-26T03:37:50.284Z,100831.55
2018-07-26T03:40:20.037Z,100833.27
2018-07-26T03:42:49.731Z,100828.61
2018-07-26T03:45:19.469Z,100823.41
2018-07-26T03:47:49.180Z,100830.45
2018-07-26T03:50:18.905Z,100827.83
2018-07-26T03:52:48.677Z,100825.12
2018-07-26T03:55:18.319Z,100831.78
2018-07-26T03:57:48.051Z,100830.51
2018-07-26T04:00:17.760Z,100831.89
2018-07-26T04:02:47.453Z,100839.80
2018-07-26T04:05:17.134Z,100839.73
2018-07-26T04:07:46.914Z,100837.69
2018-07-26T04:10:16.629Z,100837.73
2018-07-26T04:12:46.333Z,100837.04
2018-07-26T04:15:16.169Z,100838.89
2018-07-26T04:17:49.106Z,100837.23
2018-07-26T04:20:18.872Z,100842.95
2018-07-26T04:22:48.554Z,100844.50
2018-07-26T04:25:18.291Z,100847.61
2018-07-26T04:27:48.055Z,100837.33
2018-07-26T04:30:17.735Z,100836.91
2018-07-26T04:32:47.128Z,100837.78
2018-07-26T04:35:17.183Z,100847.88
2018-07-26T04:37:46.885Z,100854.01
2018-07-26T04:40:16.780Z,100853.03
2018-07-26T04:42:46.499Z,100857.16
2018-07-26T04:45:16.211Z,100855.70
2018-07-26T04:47:45.871Z,100849.83
2018-07-26T04:50:15.556Z,100848.84
2018-07-26T04:52:45.397Z,100849.09
2018-07-26T04:55:15.142Z,100848.78
2018-07-26T04:57:45.097Z,100844.95
2018-07-26T05:00:14.847Z,100841.52
2018-07-26T05:02:44.590Z,100840.16
2018-07-26T05:05:14.287Z,100843.80
2018-07-26T05:07:43.964Z,100834.60
2018-07-26T05:10:13.649Z,100834.39
2018-07-26T05:12:43.356Z,100834.91
2018-07-26T05:15:13.042Z,100837.47
2018-07-26T05:17:42.857Z,100844.78
2018-07-26T05:20:12.576Z,100851.36
2018-07-26T05:22:42.321Z,100848.37
2018-07-26T05:25:11.953Z,100854.98
2018-07-26T05:27:41.668Z,100855.24
2018-07-26T05:30:11.415Z,100850.26
2018-07-26T05:32:41.109Z,100859.08
2018-07-26T05:35:10.824Z,100850.65
2018-07-26T05:37:40.471Z,100861.26
2018-07-26T05:40:10.225Z,100860.05
2018-07-26T05:42:39.556Z,100861.56
2018-07-26T05:45:09.329Z,100858.20
2018-07-26T05:47:39.149Z,100854.41
2018-07-26T05:50:10.141Z,100858.98
2018-07-26T05:52:40.135Z,100857.95
2018-07-26T05:55:10.692Z,100867.14
2018-07-26T05:57:40.328Z,100870.57
2018-07-26T06:00:12.760Z,100868.20
2018-07-26T06:02:44.256Z,100871.36
2018-07-26T06:05:14.031Z,100861.46
2018-07-26T06:07:43.785Z,100868.72
2018-07-26T06:10:13.677Z,100862.84
2018-07-26T06:12:43.396Z,100861.95
2018-07-26T06:15:13.608Z,100867.14
2018-07-26T06:24:30.821Z,100866.91
2018-07-26T06:27:00.713Z,100865.16
2018-07-26T06:29:30.433Z,100870.91
2018-07-26T06:32:00.167Z,100869.82
2018-07-26T06:34:29.840Z,100862.95
2018-07-26T06:36:59.635Z,100858.27
2018-07-26T06:39:29.410Z,100859.18
2018-07-26T06:41:59.088Z,100851.72
2018-07-26T06:44:28.933Z,100852.82
2018-07-26T06:46:58.595Z,100857.55
2018-07-26T06:49:28.324Z,100860.65
2018-07-26T06:51:58.002Z,100860.75
2018-07-26T06:54:28.487Z,100861.94
2018-07-26T06:56:58.335Z,100857.65
2018-07-26T06:59:28.197Z,100861.56
2018-07-26T07:01:57.886Z,100865.02
2018-07-26T07:04:27.617Z,100861.05
2018-07-26T07:06:57.356Z,100854.48
2018-07-26T07:09:27.030Z,100853.59
2018-07-26T07:11:56.786Z,100851.83
2018-07-26T07:14:26.241Z,100859.20
2018-07-26T07:16:55.906Z,100857.24
2018-07-26T07:19:25.740Z,100863.16
2018-07-26T07:21:55.570Z,100855.94
2018-07-26T07:24:25.298Z,100853.80
2018-07-26T07:26:54.986Z,100851.13
2018-07-26T07:29:24.767Z,100858.78
2018-07-26T07:31:54.581Z,100851.92
2018-07-26T07:34:23.968Z,100852.69
2018-07-26T07:36:53.718Z,100858.34
2018-07-26T07:39:23.474Z,100852.77
2018-07-26T07:41:53.312Z,100857.27
2018-07-26T07:44:23.196Z,100854.05
2018-07-26T07:46:52.890Z,100844.91
2018-07-26T07:49:22.610Z,100853.53
2018-07-26T07:51:52.355Z,100851.13
2018-07-26T07:54:22.187Z,100851.33
2018-07-26T07:56:52.059Z,100849.15
2018-07-26T07:59:21.813Z,100844.94
2018-07-26T08:01:51.543Z,100848.19
2018-07-26T08:04:21.446Z,100847.27
2018-07-26T08:06:51.238Z,100849.94
2018-07-26T08:09:20.852Z,100842.94
2018-07-26T08:11:50.639Z,100849.98
2018-07-26T08:14:20.014Z,100841.88
2018-07-26T08:16:49.768Z,100846.75
2018-07-26T08:19:19.433Z,100849.75
2018-07-26T08:21:49.116Z,100851.02
2018-07-26T08:24:21.681Z,100843.92
2018-07-26T08:26:52.416Z,100850.88
2018-07-26T08:29:22.656Z,100855.27
2018-07-26T08:31:52.712Z,100850.22
2018-07-26T08:34:22.941Z,100851.47
2018-07-26T08:36:52.843Z,100852.84
2018-07-26T08:39:22.561Z,100854.83
2018-07-26T08:41:52.321Z,100849.59
2018-07-26T08:44:22.866Z,100853.64
2018-07-26T08:46:52.757Z,100846.03
2018-07-26T08:49:22.612Z,100854.88
2018-07-26T08:51:52.313Z,100853.16
2018-07-26T08:54:22.060Z,100851.13
2018-07-26T08:56:51.768Z,100854.18
2018-07-26T08:59:21.649Z,100850.61
2018-07-26T09:01:51.363Z,100847.73
2018-07-26T09:04:22.411Z,100851.52
2018-07-26T09:06:52.231Z,100855.28
2018-07-26T09:09:22.006Z,100848.02
2018-07-26T09:11:51.789Z,100851.48
2018-07-26T09:14:21.835Z,100848.45
2018-07-26T09:16:51.531Z,100851.75
2018-07-26T09:19:21.306Z,100845.62
2018-07-26T09:21:51.190Z,100846.45
2018-07-26T09:24:20.732Z,100847.84
2018-07-26T09:26:50.551Z,100839.97
2018-07-26T09:29:20.319Z,100842.28
2018-07-26T09:31:50.061Z,100842.46
2018-07-26T09:34:19.817Z,100840.21
2018-07-26T09:36:49.644Z,100834.83
2018-07-26T09:39:19.394Z,100838.44
2018-07-26T09:41:48.750Z,100831.16
2018-07-26T09:44:18.447Z,100830.70
2018-07-26T09:46:48.142Z,100828.66
2018-07-26T09:49:18.032Z,100824.64
2018-07-26T09:51:47.792Z,100828.55
2018-07-26T09:54:17.496Z,100833.13
2018-07-26T09:56:47.309Z,100837.20
2018-07-26T09:59:17.085Z,100826.51
2018-07-26T10:01:46.758Z,100824.72
2018-07-26T10:04:16.518Z,100822.08
2018-07-26T10:06:46.182Z,100823.13
2018-07-26T10:09:15.836Z,100818.77
2018-07-26T10:11:45.598Z,100818.88
2018-07-26T10:14:15.228Z,100814.62
2018-07-26T10:16:45.179Z,100814.00
2018-07-26T10:19:14.967Z,100808.00
2018-07-26T10:21:44.873Z,100812.87
2018-07-26T10:24:14.566Z,100815.48
2018-07-26T10:26:44.254Z,100814.55
2018-07-26T10:29:14.041Z,100808.06
2018-07-26T10:31:43.731Z,100812.68
2018-07-26T10:34:14.477Z,100801.48
2018-07-26T10:36:44.187Z,100802.84
2018-07-26T10:39:13.913Z,100796.98
2018-07-26T10:41:43.622Z,100795.42
2018-07-26T10:44:13.404Z,100794.93
2018-07-26T10:46:43.225Z,100794.45
2018-07-26T10:49:12.938Z,100788.28
2018-07-26T10:51:45.987Z,100777.50
2018-07-26T10:54:17.673Z,100778.52
2018-07-26T10:56:47.769Z,100781.28
2018-07-26T10:59:17.816Z,100778.08
2018-07-26T11:01:48.496Z,100777.02
2018-07-26T11:04:18.261Z,100781.34
2018-07-26T11:06:48.181Z,100780.61
2018-07-26T11:09:17.851Z,100773.66
2018-07-26T11:11:47.727Z,100766.78
2018-07-26T11:14:17.416Z,100761.49
2018-07-26T11:16:47.090Z,100766.14
2018-07-26T11:19:16.758Z,100769.33
2018-07-26T11:21:46.482Z,100769.66
2018-07-26T11:24:16.190Z,100763.81
2018-07-26T11:26:45.909Z,100765.41
2018-07-26T11:29:16.221Z,100767.62
2018-07-26T11:31:45.946Z,100759.96
2018-07-26T11:34:15.674Z,100757.77
2018-07-26T11:36:45.513Z,100751.11
2018-07-26T11:39:15.186Z,100754.43
2018-07-26T11:41:44.977Z,100750.19
2018-07-26T11:44:14.657Z,100748.48
2018-07-26T11:46:44.352Z,100748.58
2018-07-26T11:49:14.075Z,100740.08
2018-07-26T11:51:43.782Z,100745.91
2018-07-26T11:54:13.597Z,100740.12
2018-07-26T11:56:43.302Z,100740.83
2018-07-26T11:59:12.969Z,100744.58
2018-07-26T12:01:42.707Z,100739.09
2018-07-26T12:04:12.390Z,100743.05
2018-07-26T12:06:42.192Z,100735.80
2018-07-26T12:09:12.019Z,100724.11
2018-07-26T12:11:41.840Z,100730.38
2018-07-26T12:14:12.419Z,100723.64
2018-07-26T12:16:42.122Z,100727.08
2018-07-26T12:19:11.905Z,100729.43
2018-07-26T12:21:41.751Z,100718.45
2018-07-26T12:24:11.462Z,100716.55
2018-07-26T12:26:41.189Z,100715.47
2018-07-26T12:29:10.898Z,100708.53
2018-07-26T12:31:40.806Z,100705.78
2018-07-26T12:34:10.994Z,100698.44
2018-07-26T12:36:40.839Z,100697.00
2018-07-26T12:39:12.712Z,100688.19
2018-07-26T12:41:42.496Z,100689.11
2018-07-26T12:44:12.302Z,100687.49
2018-07-26T12:46:42.077Z,100683.17
2018-07-26T12:49:11.919Z,100681.18
2018-07-26T12:51:41.694Z,100678.59
2018-07-26T12:54:11.540Z,100672.17
2018-07-26T12:56:41.390Z,100678.95
2018-07-26T12:59:11.299Z,100677.67
2018-07-26T13:01:41.019Z,100675.39
2018-07-26T13:04:10.758Z,100674.68
2018-07-26T13:06:40.563Z,100666.82
2018-07-26T13:09:11.056Z,100667.81
2018-07-26T13:11:47.924Z,100662.08
2018-07-26T13:14:17.408Z,100659.66
2018-07-26T13:16:47.185Z,100661.42
2018-07-26T13:19:16.930Z,100656.44
2018-07-26T13:21:46.654Z,100659.38
2018-07-26T13:24:16.553Z,100654.96
2018-07-26T13:26:46.326Z,100646.48
2018-07-26T13:29:16.065Z,100646.45
2018-07-26T13:31:45.765Z,100641.45
2018-07-26T13:34:15.115Z,100646.11
2018-07-26T13:36:44.893Z,100642.98
2018-07-26T13:39:14.885Z,100642.76
2018-07-26T13:41:44.611Z,100635.09
2018-07-26T13:44:14.398Z,100632.16
2018-07-26T13:46:44.211Z,100629.08
2018-07-26T13:49:13.962Z,100629.06
2018-07-26T13:51:43.731Z,100625.45
2018-07-26T13:54:13.458Z,100622.70
2018-07-26T13:56:43.229Z,100622.91
2018-07-26T13:59:12.945Z,100629.94
2018-07-26T14:01:42.738Z,100621.72
2018-07-26T14:04:12.482Z,100617.28
2018-07-26T14:06:42.233Z,100619.81
2018-07-26T14:09:12.655Z,100619.70
2018-07-26T14:11:42.876Z,100614.50
2018-07-26T14:14:12.577Z,100612.89
2018-07-26T14:16:42.308Z,100614.61
2018-07-26T14:19:12.014Z,100615.86
2018-07-26T14:21:41.761Z,100607.61
2018-07-26T14:24:16.735Z,100612.81
2018-07-26T14:26:46.463Z,100597.77
2018-07-26T14:29:16.877Z,100601.13
2018-07-26T14:31:46.584Z,100605.06
2018-07-26T14:34:16.286Z,100608.81
2018-07-26T14:36:46.351Z,100599.52
2018-07-26T14:39:16.073Z,100598.77
2018-07-26T14:41:45.929Z,100594.91
2018-07-26T14:44:15.619Z,100595.05
2018-07-26T14:46:45.344Z,100592.38
2018-07-26T14:49:15.082Z,100591.22
2018-07-26T14:51:45.032Z,100588.17
2018-07-26T14:54:14.701Z,100593.64
2018-07-26T14:56:44.436Z,100590.72
2018-07-26T14:59:14.178Z,100591.16
2018-07-26T15:01:43.937Z,100588.02
2018-07-26T15:04:13.322Z,100590.63
2018-07-26T15:06:43.063Z,100584.00
2018-07-26T15:09:12.815Z,100586.61
2018-07-26T15:11:42.822Z,100587.09
2018-07-26T15:14:12.529Z,100588.95
2018-07-26T15:16:42.156Z,100586.92
2018-07-26T15:19:11.919Z,100590.65
2018-07-26T15:21:41.626Z,100586.69
2018-07-26T15:24:11.384Z,100591.28
2018-07-26T15:26:41.045Z,100594.42
2018-07-26T15:29:10.743Z,100588.18
2018-07-26T15:31:40.546Z,100584.41
2018-07-26T15:34:10.251Z,100577.83
2018-07-26T15:36:39.988Z,100579.81
2018-07-26T15:39:11.021Z,100578.84
2018-07-26T15:41:44.494Z,100570.91
2018-07-26T15:44:15.845Z,100567.66
2018-07-26T15:46:45.573Z,100567.06
2018-07-26T15:49:15.294Z,100558.97
2018-07-26T15:51:44.959Z,100569.08
2018-07-26T15:54:14.289Z,100561.63
2018-07-26T15:56:44.047Z,100572.30
2018-07-26T15:59:13.855Z,100567.36
2018-07-26T16:01:43.595Z,100564.98
2018-07-26T16:04:13.464Z,100561.71
2018-07-26T16:06:43.173Z,100569.90
2018-07-26T16:09:13.279Z,100566.30
2018-07-26T16:11:42.980Z,100562.20
2018-07-26T16:14:12.766Z,100560.64
2018-07-26T16:16:42.590Z,100561.38
2018-07-26T16:19:12.302Z,100561.03
2018-07-26T16:21:42.065Z,100569.28
2018-07-26T16:24:11.754Z,100563.27
2018-07-26T16:26:41.466Z,100568.58
2018-07-26T16:29:10.915Z,100575.38
2018-07-26T16:31:40.630Z,100567.08
2018-07-26T16:34:10.517Z,100572.95
2018-07-26T16:36:40.207Z,100570.64
2018-07-26T16:39:11.912Z,100571.05
2018-07-26T16:41:41.690Z,100564.61
2018-07-26T16:44:11.142Z,100569.88
2018-07-26T16:46:40.846Z,100559.92
2018-07-26T16:49:10.543Z,100562.47
2018-07-26T16:51:40.290Z,100565.56
2018-07-26T16:54:10.673Z,100563.49
2018-07-26T16:56:40.478Z,100560.20
2018-07-26T16:59:09.858Z,100559.07
2018-07-26T17:01:39.599Z,100557.84
2018-07-26T17:04:08.997Z,100552.20
2018-07-26T17:06:38.709Z,100550.09
2018-07-26T17:09:10.843Z,100557.81
2018-07-26T17:11:40.732Z,100562.49
2018-07-26T17:14:10.562Z,100561.31
2018-07-26T17:16:40.306Z,100566.85
2018-07-26T17:19:10.201Z,100571.08
2018-07-26T17:21:39.617Z,100574.28
2018-07-26T17:24:09.404Z,100581.31
2018-07-26T17:26:39.171Z,100580.13
2018-07-26T17:29:09.091Z,100573.91
2018-07-26T17:31:38.888Z,100574.54
2018-07-26T17:34:08.597Z,100574.66
2018-07-26T17:36:38.349Z,100573.38
2018-07-26T17:39:09.356Z,100572.92
2018-07-26T17:41:39.436Z,100574.60
2018-07-26T17:44:09.125Z,100572.03
2018-07-26T17:46:38.992Z,100576.55
2018-07-26T17:49:08.763Z,100577.88
2018-07-26T17:51:38.525Z,100575.53
2018-07-26T17:54:08.333Z,100567.84
2018-07-26T17:56:38.248Z,100572.50
2018-07-26T17:59:08.216Z,100571.86
2018-07-26T18:01:37.989Z,100576.16
2018-07-26T18:04:07.866Z,100578.36
2018-07-26T18:06:37.731Z,100576.69
2018-07-26T18:09:09.109Z,100578.73
2018-07-26T18:11:39.117Z,100582.61
2018-07-26T18:14:08.897Z,100587.25
2018-07-26T18:16:38.630Z,100588.12
2018-07-26T18:19:08.346Z,100594.31
2018-07-26T18:21:38.143Z,100594.88
2018-07-26T18:24:08.373Z,100590.09
2018-07-26T18:26:38.118Z,100600.72
2018-07-26T18:29:07.805Z,100597.70
2018-07-26T18:31:37.694Z,100588.53
2018-07-26T18:34:07.242Z,100595.27
2018-07-26T18:36:36.897Z,100591.98
2018-07-26T18:39:11.139Z,100596.70
2018-07-26T18:41:41.040Z,100598.77
2018-07-26T18:44:10.563Z,100595.59
2018-07-26T18:46:40.300Z,100594.55
2018-07-26T18:49:10.324Z,100604.72
2018-07-26T18:51:40.096Z,100607.73
2018-07-26T18:54:09.918Z,100606.70
2018-07-26T18:56:39.616Z,100604.38
2018-07-26T18:59:09.343Z,100611.40
2018-07-26T19:01:39.320Z,100612.23
2018-07-26T19:04:09.282Z,100618.95
2018-07-26T19:06:38.772Z,100623.75
2018-07-26T19:09:11.447Z,100628.13
2018-07-26T19:11:41.830Z,100625.27
2018-07-26T19:14:11.599Z,100629.45
2018-07-26T19:16:41.288Z,100625.84
2018-07-26T19:19:11.037Z,100627.66
2018-07-26T19:21:41.040Z,100642.11
2018-07-26T19:24:10.844Z,100643.79
2018-07-26T19:26:40.958Z,100642.81
2018-07-26T19:29:10.685Z,100645.88
2018-07-26T19:31:40.441Z,100649.08
2018-07-26T19:34:10.287Z,100651.30
2018-07-26T19:36:40.161Z,100658.78
2018-07-26T19:39:12.154Z,100654.48
2018-07-26T19:41:42.878Z,100659.38
2018-07-26T19:44:12.962Z,100661.23
2018-07-26T19:46:42.764Z,100667.59
2018-07-26T19:49:12.596Z,100668.52
2018-07-26T19:51:42.412Z,100679.23
2018-07-26T19:54:12.374Z,100675.09
2018-07-26T19:56:42.126Z,100677.66
2018-07-26T19:59:11.955Z,100674.03
2018-07-26T20:01:41.885Z,100675.97
2018-07-26T20:04:11.809Z,100679.28
2018-07-26T20:06:41.574Z,100678.01
2018-07-26T20:09:12.003Z,100679.98
2018-07-26T20:11:41.787Z,100678.70
2018-07-26T20:14:12.304Z,100680.47
2018-07-26T20:16:42.116Z,100683.55
2018-07-26T20:19:12.293Z,100681.03
2018-07-26T20:21:42.023Z,100682.44
2018-07-26T20:24:11.920Z,100681.73
2018-07-26T20:26:41.795Z,100687.59
2018-07-26T20:29:11.470Z,100677.10
2018-07-26T20:31:41.364Z,100677.93
2018-07-26T20:34:11.160Z,100682.66
2018-07-26T20:36:41.104Z,100675.45
2018-07-26T20:39:13.637Z,100679.11
2018-07-26T20:41:43.446Z,100675.69
2018-07-26T20:44:13.512Z,100674.81
2018-07-26T20:46:43.191Z,100678.43
2018-07-26T20:49:12.963Z,100676.63
2018-07-26T20:51:42.850Z,100681.68
2018-07-26T20:54:12.634Z,100682.21
2018-07-26T20:56:42.346Z,100680.31
2018-07-26T20:59:12.117Z,100691.23
2018-07-26T21:01:41.832Z,100686.45
2018-07-26T21:04:11.757Z,100689.34
2018-07-26T21:06:43.062Z,100693.81
2018-07-26T21:09:14.204Z,100693.75
2018-07-26T21:11:44.781Z,100693.41
2018-07-26T21:14:14.705Z,100696.25
2018-07-26T21:16:44.406Z,100699.36
2018-07-26T21:19:14.171Z,100700.30
2018-07-26T21:21:44.011Z,100701.42
2018-07-26T21:24:13.786Z,100703.02
2018-07-26T21:26:44.477Z,100700.22
2018-07-26T21:29:14.313Z,100706.25
2018-07-26T21:31:44.247Z,100721.01
2018-07-26T21:34:13.964Z,100723.95
2018-07-26T21:36:43.714Z,100717.28
2018-07-26T21:39:13.427Z,100722.76
2018-07-26T21:41:44.333Z,100721.48
2018-07-26T21:44:14.073Z,100720.42
2018-07-26T21:46:43.813Z,100725.91
2018-07-26T21:49:13.554Z,100720.82
2018-07-26T21:51:43.254Z,100724.61
2018-07-26T21:54:13.054Z,100727.86
2018-07-26T21:56:42.806Z,100732.39
2018-07-26T21:59:12.650Z,100732.77
2018-07-26T22:01:42.430Z,100737.63
2018-07-26T22:04:12.250Z,100732.09
2018-07-26T22:06:42.022Z,100739.67
2018-07-26T22:09:12.424Z,100739.84
2018-07-26T22:11:42.141Z,100740.16
2018-07-26T22:14:11.856Z,100740.88
2018-07-26T22:16:41.612Z,100740.41
2018-07-26T22:19:11.334Z,100743.73
2018-07-26T22:21:41.222Z,100746.62
2018-07-26T22:24:10.929Z,100748.77
2018-07-26T22:26:40.629Z,100751.80
2018-07-26T22:29:10.397Z,100750.28
2018-07-26T22:31:40.193Z,100750.87
2018-07-26T22:34:10.297Z,100757.47
2018-07-26T22:36:40.215Z,100751.49
2018-07-26T22:39:11.264Z,100754.14
2018-07-26T22:41:41.562Z,100754.97
2018-07-26T22:44:11.357Z,100748.72
2018-07-26T22:46:41.129Z,100754.81
2018-07-26T22:49:10.973Z,100752.39
2018-07-26T22:51:40.751Z,100752.44
2018-07-26T22:54:10.661Z,100751.34
2018-07-26T22:56:40.007Z,100745.17
2018-07-26T22:59:09.728Z,100751.53
2018-07-26T23:01:39.751Z,100747.79
2018-07-26T23:04:09.616Z,100749.70
2018-07-26T23:06:39.354Z,100752.27
2018-07-26T23:09:11.007Z,100743.88
2018-07-26T23:11:41.067Z,100749.64
2018-07-26T23:14:11.649Z,100747.69
2018-07-26T23:16:41.909Z,100749.78
2018-07-26T23:19:13.086Z,100749.58
2018-07-26T23:21:42.816Z,100757.18
2018-07-26T23:24:12.721Z,100752.06
2018-07-26T23:26:42.455Z,100745.66
2018-07-26T23:29:11.791Z,100750.03
2018-07-26T23:31:41.525Z,100748.64
2018-07-26T23:34:11.355Z,100748.88
2018-07-26T23:36:41.031Z,100745.02
2018-07-26T23:39:12.293Z,100749.16
2018-07-26T23:41:42.026Z,100748.98
2018-07-26T23:44:11.829Z,100749.30
2018-07-26T23:46:41.541Z,100750.46
2018-07-26T23:49:11.361Z,100749.34
2018-07-26T23:51:41.073Z,100755.54
2018-07-26T23:54:10.898Z,100750.94
2018-07-26T23:56:40.607Z,100753.75
2018-07-26T23:59:10.406Z,100755.43
